sensor_id;sensor_type;location;lat;lon;timestamp;P1;durP1;ratioP1;P2;durP2;ratioP2
22070;SDS011;11200;51.488;6.668;2023-02-28T04:47:02;4.15;;;2.78;;
22070;SDS011;11200;51.488;6.668;2023-02-28T04:49:28;4.50;;;3.40;;
22070;SDS011;11200;51.488;6.668;2023-02-28T04:51:53;4.20;;;3.20;;
22070;SDS011;11200;51.488;6.668;2023-02-28T04:54:19;4.20;;;3.13;;
22070;SDS011;11200;51.488;6.668;2023-02-28T04:56:45;4.90;;;3.30;;
22070;SDS011;11200;51.488;6.668;2023-02-28T04:59:11;4.20;;;3.10;;
22070;SDS011;11200;51.488;6.668;2023-02-28T05:01:36;3.83;;;2.88;;
22070;SDS011;11200;51.488;6.668;2023-02-28T05:04:03;3.50;;;3.03;;
22070;SDS011;11200;51.488;6.668;2023-02-28T05:06:31;3.80;;;3.03;;
22070;SDS011;11200;51.488;6.668;2023-02-28T05:08:57;4.35;;;3.08;;
22070;SDS011;11200;51.488;6.668;2023-02-28T05:11:25;3.67;;;3.20;;
22070;SDS011;11200;51.488;6.668;2023-02-28T05:13:54;4.22;;;3.00;;
22070;SDS011;11200;51.488;6.668;2023-02-28T05:16:20;4.28;;;3.20;;
22070;SDS011;11200;51.488;6.668;2023-02-28T05:18:46;5.05;;;2.90;;
22070;SDS011;11200;51.488;6.668;2023-02-28T05:21:21;3.72;;;3.08;;
22070;SDS011;11200;51.488;6.668;2023-02-28T05:23:51;3.28;;;2.72;;
22070;SDS011;11200;51.488;6.668;2023-02-28T05:26:17;3.80;;;3.00;;
22070;SDS011;11200;51.488;6.668;2023-02-28T05:28:43;3.92;;;2.83;;
22070;SDS011;11200;51.488;6.668;2023-02-28T05:31:11;4.50;;;2.90;;
22070;SDS011;11200;51.488;6.668;2023-02-28T05:33:37;3.88;;;2.90;;
22070;SDS011;11200;51.488;6.668;2023-02-28T05:36:03;3.60;;;2.63;;
22070;SDS011;11200;51.488;6.668;2023-02-28T05:38:29;3.53;;;2.80;;
22070;SDS011;11200;51.488;6.668;2023-02-28T05:40:55;4.88;;;3.05;;
22070;SDS011;11200;51.488;6.668;2023-02-28T05:43:21;4.18;;;2.90;;
22070;SDS011;11200;51.488;6.668;2023-02-28T05:45:50;4.53;;;3.10;;
22070;SDS011;11200;51.488;6.668;2023-02-28T05:48:16;3.70;;;2.60;;
22070;SDS011;11200;51.488;6.668;2023-02-28T05:50:43;4.13;;;2.90;;
22070;SDS011;11200;51.488;6.668;2023-02-28T05:53:10;3.30;;;2.90;;
22070;SDS011;11200;51.488;6.668;2023-02-28T05:55:36;3.70;;;2.88;;
22070;SDS011;11200;51.488;6.668;2023-02-28T05:58:03;3.83;;;3.00;;
22070;SDS011;11200;51.488;6.668;2023-02-28T06:00:28;3.88;;;2.88;;
22070;SDS011;11200;51.488;6.668;2023-02-28T06:02:54;3.60;;;2.92;;
22070;SDS011;11200;51.488;6.668;2023-02-28T06:05:22;3.30;;;2.85;;
22070;SDS011;11200;51.488;6.668;2023-02-28T06:07:48;3.03;;;2.60;;
22070;SDS011;11200;51.488;6.668;2023-02-28T06:10:14;4.05;;;2.70;;
22070;SDS011;11200;51.488;6.668;2023-02-28T06:12:40;3.38;;;2.78;;
22070;SDS011;11200;51.488;6.668;2023-02-28T06:15:07;4.05;;;2.80;;
22070;SDS011;11200;51.488;6.668;2023-02-28T06:17:37;3.15;;;2.85;;
22070;SDS011;11200;51.488;6.668;2023-02-28T06:20:03;3.55;;;2.97;;
22070;SDS011;11200;51.488;6.668;2023-02-28T06:22:32;3.17;;;2.60;;
22070;SDS011;11200;51.488;6.668;2023-02-28T06:24:57;3.58;;;3.20;;
22070;SDS011;11200;51.488;6.668;2023-02-28T06:27:23;4.68;;;3.00;;
22070;SDS011;11200;51.488;6.668;2023-02-28T06:29:48;3.92;;;2.78;;
22070;SDS011;11200;51.488;6.668;2023-02-28T06:32:18;4.22;;;2.90;;
22070;SDS011;11200;51.488;6.668;2023-02-28T06:34:43;4.50;;;2.92;;
22070;SDS011;11200;51.488;6.668;2023-02-28T06:37:09;3.00;;;2.70;;
22070;SDS011;11200;51.488;6.668;2023-02-28T06:39:35;3.97;;;3.10;;
22070;SDS011;11200;51.488;6.668;2023-02-28T06:42:00;4.80;;;2.78;;
22070;SDS011;11200;51.488;6.668;2023-02-28T06:44:26;3.22;;;2.63;;
22070;SDS011;11200;51.488;6.668;2023-02-28T06:46:51;3.92;;;3.00;;
22070;SDS011;11200;51.488;6.668;2023-02-28T06:49:17;2.92;;;2.55;;
22070;SDS011;11200;51.488;6.668;2023-02-28T06:51:43;3.92;;;2.50;;
22070;SDS011;11200;51.488;6.668;2023-02-28T06:54:10;3.58;;;2.78;;
22070;SDS011;11200;51.488;6.668;2023-02-28T06:56:36;4.07;;;2.60;;
22070;SDS011;11200;51.488;6.668;2023-02-28T06:59:02;3.47;;;2.78;;
22070;SDS011;11200;51.488;6.668;2023-02-28T07:01:28;3.53;;;2.60;;
22070;SDS011;11200;51.488;6.668;2023-02-28T07:03:56;3.83;;;2.65;;
22070;SDS011;11200;51.488;6.668;2023-02-28T07:06:22;3.08;;;2.63;;
22070;SDS011;11200;51.488;6.668;2023-02-28T07:08:49;3.40;;;2.70;;
22070;SDS011;11200;51.488;6.668;2023-02-28T07:11:15;4.68;;;2.80;;
22070;SDS011;11200;51.488;6.668;2023-02-28T07:13:41;3.47;;;2.80;;
22070;SDS011;11200;51.488;6.668;2023-02-28T07:16:08;3.83;;;2.67;;
22070;SDS011;11200;51.488;6.668;2023-02-28T07:18:37;4.70;;;2.92;;
22070;SDS011;11200;51.488;6.668;2023-02-28T07:21:03;3.55;;;2.60;;
22070;SDS011;11200;51.488;6.668;2023-02-28T07:23:30;3.42;;;2.90;;
22070;SDS011;11200;51.488;6.668;2023-02-28T07:25:56;2.90;;;2.60;;
22070;SDS011;11200;51.488;6.668;2023-02-28T07:28:22;3.15;;;2.85;;
22070;SDS011;11200;51.488;6.668;2023-02-28T07:30:48;3.67;;;2.80;;
22070;SDS011;11200;51.488;6.668;2023-02-28T07:33:13;3.15;;;2.80;;
22070;SDS011;11200;51.488;6.668;2023-02-28T07:35:39;4.03;;;3.03;;
22070;SDS011;11200;51.488;6.668;2023-02-28T07:38:05;3.15;;;2.40;;
22070;SDS011;11200;51.488;6.668;2023-02-28T07:40:32;3.50;;;2.92;;
22070;SDS011;11200;51.488;6.668;2023-02-28T07:42:59;3.88;;;3.17;;
22070;SDS011;11200;51.488;6.668;2023-02-28T07:45:26;5.13;;;3.28;;
22070;SDS011;11200;51.488;6.668;2023-02-28T07:47:53;4.30;;;3.00;;
22070;SDS011;11200;51.488;6.668;2023-02-28T07:50:19;3.42;;;2.70;;
22070;SDS011;11200;51.488;6.668;2023-02-28T07:52:45;3.22;;;2.80;;
22070;SDS011;11200;51.488;6.668;2023-02-28T07:55:11;4.55;;;3.00;;
22070;SDS011;11200;51.488;6.668;2023-02-28T07:57:38;6.18;;;3.17;;
22070;SDS011;11200;51.488;6.668;2023-02-28T08:00:04;3.88;;;3.13;;
22070;SDS011;11200;51.488;6.668;2023-02-28T08:02:32;4.25;;;3.10;;
22070;SDS011;11200;51.488;6.668;2023-02-28T08:04:57;3.70;;;2.80;;
22070;SDS011;11200;51.488;6.668;2023-02-28T08:07:24;4.20;;;3.00;;
22070;SDS011;11200;51.488;6.668;2023-02-28T08:09:50;4.00;;;3.33;;
22070;SDS011;11200;51.488;6.668;2023-02-28T08:12:15;5.15;;;3.53;;
22070;SDS011;11200;51.488;6.668;2023-02-28T08:14:41;4.68;;;3.30;;
22070;SDS011;11200;51.488;6.668;2023-02-28T08:17:06;6.18;;;3.47;;
22070;SDS011;11200;51.488;6.668;2023-02-28T08:19:32;3.65;;;2.92;;
22070;SDS011;11200;51.488;6.668;2023-02-28T08:21:58;4.20;;;3.38;;
22070;SDS011;11200;51.488;6.668;2023-02-28T08:24:23;4.28;;;3.20;;
22070;SDS011;11200;51.488;6.668;2023-02-28T08:26:49;4.60;;;3.25;;
22070;SDS011;11200;51.488;6.668;2023-02-28T08:29:15;3.85;;;3.03;;
22070;SDS011;11200;51.488;6.668;2023-02-28T08:31:40;4.55;;;3.47;;
22070;SDS011;11200;51.488;6.668;2023-02-28T08:34:07;4.10;;;3.03;;
22070;SDS011;11200;51.488;6.668;2023-02-28T08:36:34;4.72;;;3.10;;
22070;SDS011;11200;51.488;6.668;2023-02-28T08:38:59;5.32;;;3.60;;
22070;SDS011;11200;51.488;6.668;2023-02-28T08:41:25;6.53;;;3.95;;
22070;SDS011;11200;51.488;6.668;2023-02-28T08:43:51;5.38;;;4.00;;
22070;SDS011;11200;51.488;6.668;2023-02-28T08:46:16;4.43;;;3.63;;
22070;SDS011;11200;51.488;6.668;2023-02-28T08:48:42;4.30;;;3.88;;
22070;SDS011;11200;51.488;6.668;2023-02-28T08:51:10;4.72;;;3.67;;
22070;SDS011;11200;51.488;6.668;2023-02-28T08:53:38;4.70;;;4.05;;
22070;SDS011;11200;51.488;6.668;2023-02-28T08:56:09;5.18;;;4.07;;
22070;SDS011;11200;51.488;6.668;2023-02-28T08:58:36;4.65;;;3.88;;
22070;SDS011;11200;51.488;6.668;2023-02-28T09:01:15;5.43;;;3.88;;
22070;SDS011;11200;51.488;6.668;2023-02-28T09:03:47;5.18;;;3.70;;
22070;SDS011;11200;51.488;6.668;2023-02-28T09:06:14;4.50;;;3.67;;
22070;SDS011;11200;51.488;6.668;2023-02-28T09:08:41;4.78;;;3.70;;
22070;SDS011;11200;51.488;6.668;2023-02-28T09:11:08;4.68;;;3.28;;
22070;SDS011;11200;51.488;6.668;2023-02-28T09:13:34;5.20;;;3.50;;
22070;SDS011;11200;51.488;6.668;2023-02-28T09:16:01;4.57;;;3.55;;
22070;SDS011;11200;51.488;6.668;2023-02-28T09:18:28;5.22;;;3.35;;
22070;SDS011;11200;51.488;6.668;2023-02-28T09:20:54;3.97;;;2.92;;
22070;SDS011;11200;51.488;6.668;2023-02-28T09:23:20;4.05;;;3.33;;
22070;SDS011;11200;51.488;6.668;2023-02-28T09:25:47;6.32;;;3.60;;
22070;SDS011;11200;51.488;6.668;2023-02-28T09:28:17;5.82;;;3.50;;
22070;SDS011;11200;51.488;6.668;2023-02-28T09:30:44;3.58;;;3.28;;
22070;SDS011;11200;51.488;6.668;2023-02-28T09:33:10;4.07;;;3.63;;
22070;SDS011;11200;51.488;6.668;2023-02-28T09:35:37;4.38;;;3.25;;
22070;SDS011;11200;51.488;6.668;2023-02-28T09:38:03;5.13;;;3.42;;
22070;SDS011;11200;51.488;6.668;2023-02-28T09:40:29;4.47;;;3.22;;
22070;SDS011;11200;51.488;6.668;2023-02-28T09:42:55;5.93;;;3.10;;
22070;SDS011;11200;51.488;6.668;2023-02-28T09:45:31;3.67;;;2.83;;
22070;SDS011;11200;51.488;6.668;2023-02-28T09:48:03;3.17;;;2.88;;
22070;SDS011;11200;51.488;6.668;2023-02-28T09:50:37;2.95;;;2.67;;
22070;SDS011;11200;51.488;6.668;2023-02-28T09:53:40;3.10;;;2.80;;
22070;SDS011;11200;51.488;6.668;2023-02-28T09:56:20;5.43;;;2.80;;
22070;SDS011;11200;51.488;6.668;2023-02-28T09:59:12;2.63;;;2.42;;
22070;SDS011;11200;51.488;6.668;2023-02-28T10:04:53;3.03;;;2.33;;
22070;SDS011;11200;51.488;6.668;2023-02-28T10:10:23;2.92;;;2.38;;
22070;SDS011;11200;51.488;6.668;2023-02-28T10:12:58;3.30;;;2.40;;
22070;SDS011;11200;51.488;6.668;2023-02-28T10:15:29;3.20;;;2.50;;
22070;SDS011;11200;51.488;6.668;2023-02-28T10:17:57;2.88;;;2.50;;
22070;SDS011;11200;51.488;6.668;2023-02-28T10:20:33;2.50;;;2.30;;
22070;SDS011;11200;51.488;6.668;2023-02-28T10:23:07;2.90;;;2.25;;
22070;SDS011;11200;51.488;6.668;2023-02-28T10:26:15;2.33;;;2.10;;
22070;SDS011;11200;51.488;6.668;2023-02-28T10:28:41;2.67;;;2.10;;
22070;SDS011;11200;51.488;6.668;2023-02-28T10:31:10;3.15;;;2.20;;
22070;SDS011;11200;51.488;6.668;2023-02-28T10:33:39;2.78;;;2.30;;
22070;SDS011;11200;51.488;6.668;2023-02-28T10:36:05;3.58;;;2.38;;
22070;SDS011;11200;51.488;6.668;2023-02-28T10:38:37;4.38;;;2.45;;
22070;SDS011;11200;51.488;6.668;2023-02-28T10:41:11;2.25;;;2.05;;
22070;SDS011;11200;51.488;6.668;2023-02-28T10:43:39;4.63;;;2.17;;
22070;SDS011;11200;51.488;6.668;2023-02-28T10:46:16;2.53;;;2.30;;
22070;SDS011;11200;51.488;6.668;2023-02-28T10:49:03;3.90;;;2.70;;
22070;SDS011;11200;51.488;6.668;2023-02-28T10:51:35;4.30;;;2.55;;
22070;SDS011;11200;51.488;6.668;2023-02-28T10:54:03;4.18;;;2.70;;
22070;SDS011;11200;51.488;6.668;2023-02-28T10:56:30;4.35;;;2.60;;
22070;SDS011;11200;51.488;6.668;2023-02-28T10:59:29;3.58;;;2.47;;
22070;SDS011;11200;51.488;6.668;2023-02-28T11:01:54;4.13;;;2.50;;
22070;SDS011;11200;51.488;6.668;2023-02-28T11:07:05;4.40;;;2.50;;
22070;SDS011;11200;51.488;6.668;2023-02-28T11:09:45;3.70;;;2.10;;
22070;SDS011;11200;51.488;6.668;2023-02-28T11:12:25;4.72;;;2.97;;
22070;SDS011;11200;51.488;6.668;2023-02-28T11:15:00;4.20;;;2.33;;
22070;SDS011;11200;51.488;6.668;2023-02-28T11:17:30;4.47;;;2.17;;
22070;SDS011;11200;51.488;6.668;2023-02-28T11:19:58;3.15;;;2.20;;
22070;SDS011;11200;51.488;6.668;2023-02-28T11:22:28;5.18;;;2.65;;
22070;SDS011;11200;51.488;6.668;2023-02-28T11:24:58;2.65;;;2.30;;
22070;SDS011;11200;51.488;6.668;2023-02-28T11:29:56;4.38;;;2.40;;
22070;SDS011;11200;51.488;6.668;2023-02-28T11:32:23;3.38;;;2.58;;
22070;SDS011;11200;51.488;6.668;2023-02-28T11:35:36;3.70;;;2.50;;
22070;SDS011;11200;51.488;6.668;2023-02-28T11:37:37;3.97;;;2.20;;
22070;SDS011;11200;51.488;6.668;2023-02-28T11:40:17;2.42;;;1.90;;
22070;SDS011;11200;51.488;6.668;2023-02-28T11:42:49;3.47;;;2.20;;
22070;SDS011;11200;51.488;6.668;2023-02-28T11:48:17;2.72;;;1.75;;
22070;SDS011;11200;51.488;6.668;2023-02-28T11:56:33;3.40;;;1.95;;
22070;SDS011;11200;51.488;6.668;2023-02-28T11:59:14;2.67;;;1.90;;
22070;SDS011;11200;51.488;6.668;2023-02-28T12:10:38;4.47;;;2.00;;
22070;SDS011;11200;51.488;6.668;2023-02-28T12:21:25;2.00;;;1.80;;
22070;SDS011;11200;51.488;6.668;2023-02-28T12:24:25;2.55;;;1.70;;
22070;SDS011;11200;51.488;6.668;2023-02-28T12:27:12;2.03;;;1.70;;
22070;SDS011;11200;51.488;6.668;2023-02-28T12:29:52;2.00;;;1.65;;
22070;SDS011;11200;51.488;6.668;2023-02-28T12:34:54;2.47;;;1.85;;
22070;SDS011;11200;51.488;6.668;2023-02-28T12:37:49;2.42;;;1.70;;
22070;SDS011;11200;51.488;6.668;2023-02-28T12:40:20;2.45;;;1.70;;
22070;SDS011;11200;51.488;6.668;2023-02-28T12:42:57;2.83;;;1.63;;
22070;SDS011;11200;51.488;6.668;2023-02-28T12:48:08;1.92;;;1.67;;
22070;SDS011;11200;51.488;6.668;2023-02-28T12:50:38;2.00;;;1.80;;
22070;SDS011;11200;51.488;6.668;2023-02-28T12:55:48;2.30;;;1.90;;
22070;SDS011;11200;51.488;6.668;2023-02-28T13:03:45;3.00;;;1.88;;
22070;SDS011;11200;51.488;6.668;2023-02-28T13:06:41;2.22;;;1.83;;
22070;SDS011;11200;51.488;6.668;2023-02-28T13:09:18;2.17;;;1.88;;
22070;SDS011;11200;51.488;6.668;2023-02-28T13:11:48;2.72;;;1.80;;
22070;SDS011;11200;51.488;6.668;2023-02-28T13:14:20;2.13;;;1.92;;
22070;SDS011;11200;51.488;6.668;2023-02-28T13:16:57;2.25;;;1.98;;
22070;SDS011;11200;51.488;6.668;2023-02-28T13:24:54;2.35;;;2.08;;
22070;SDS011;11200;51.488;6.668;2023-02-28T13:27:31;3.22;;;2.00;;
22070;SDS011;11200;51.488;6.668;2023-02-28T13:30:49;2.40;;;2.20;;
22070;SDS011;11200;51.488;6.668;2023-02-28T13:38:58;2.70;;;1.90;;
22070;SDS011;11200;51.488;6.668;2023-02-28T13:51:48;3.22;;;2.00;;
22070;SDS011;11200;51.488;6.668;2023-02-28T14:05:47;3.00;;;2.05;;
22070;SDS011;11200;51.488;6.668;2023-02-28T14:09:05;2.53;;;2.10;;
22070;SDS011;11200;51.488;6.668;2023-02-28T14:11:39;4.15;;;2.42;;
22070;SDS011;11200;51.488;6.668;2023-02-28T14:14:08;2.60;;;1.98;;
22070;SDS011;11200;51.488;6.668;2023-02-28T14:16:54;2.72;;;2.10;;
22070;SDS011;11200;51.488;6.668;2023-02-28T14:19:26;3.67;;;2.13;;
22070;SDS011;11200;51.488;6.668;2023-02-28T14:33:14;2.45;;;2.25;;
22070;SDS011;11200;51.488;6.668;2023-02-28T14:38:24;3.97;;;2.30;;
22070;SDS011;11200;51.488;6.668;2023-02-28T14:40:55;4.38;;;2.63;;
22070;SDS011;11200;51.488;6.668;2023-02-28T14:43:24;2.53;;;2.33;;
22070;SDS011;11200;51.488;6.668;2023-02-28T14:45:52;2.60;;;2.40;;
22070;SDS011;11200;51.488;6.668;2023-02-28T14:48:24;2.28;;;2.08;;
22070;SDS011;11200;51.488;6.668;2023-02-28T14:50:52;3.40;;;2.13;;
22070;SDS011;11200;51.488;6.668;2023-02-28T14:53:21;2.28;;;2.00;;
22070;SDS011;11200;51.488;6.668;2023-02-28T14:55:49;2.97;;;2.35;;
22070;SDS011;11200;51.488;6.668;2023-02-28T15:00:50;2.28;;;2.05;;
22070;SDS011;11200;51.488;6.668;2023-02-28T15:03:20;3.00;;;2.35;;
22070;SDS011;11200;51.488;6.668;2023-02-28T15:05:58;3.10;;;2.50;;
22070;SDS011;11200;51.488;6.668;2023-02-28T15:08:29;2.60;;;2.40;;
22070;SDS011;11200;51.488;6.668;2023-02-28T15:11:01;3.65;;;2.30;;
22070;SDS011;11200;51.488;6.668;2023-02-28T15:13:37;3.28;;;2.60;;
22070;SDS011;11200;51.488;6.668;2023-02-28T15:16:36;3.20;;;2.33;;
22070;SDS011;11200;51.488;6.668;2023-02-28T15:19:06;2.95;;;2.28;;
22070;SDS011;11200;51.488;6.668;2023-02-28T15:21:39;2.97;;;2.20;;
22070;SDS011;11200;51.488;6.668;2023-02-28T15:26:58;2.55;;;2.30;;
22070;SDS011;11200;51.488;6.668;2023-02-28T15:29:28;2.50;;;2.30;;
22070;SDS011;11200;51.488;6.668;2023-02-28T15:32:07;2.20;;;2.00;;
22070;SDS011;11200;51.488;6.668;2023-02-28T15:34:44;3.72;;;2.25;;
22070;SDS011;11200;51.488;6.668;2023-02-28T15:39:52;2.42;;;2.20;;
22070;SDS011;11200;51.488;6.668;2023-02-28T15:42:20;2.78;;;2.45;;
22070;SDS011;11200;51.488;6.668;2023-02-28T15:44:52;2.92;;;2.50;;
22070;SDS011;11200;51.488;6.668;2023-02-28T15:47:25;2.55;;;2.30;;
22070;SDS011;11200;51.488;6.668;2023-02-28T15:49:53;3.25;;;2.88;;
22070;SDS011;11200;51.488;6.668;2023-02-28T15:55:17;4.95;;;2.63;;
22070;SDS011;11200;51.488;6.668;2023-02-28T15:57:46;3.47;;;2.35;;
22070;SDS011;11200;51.488;6.668;2023-02-28T16:00:18;4.38;;;2.40;;
22070;SDS011;11200;51.488;6.668;2023-02-28T16:02:46;3.85;;;2.70;;
22070;SDS011;11200;51.488;6.668;2023-02-28T16:07:43;2.75;;;2.33;;
22070;SDS011;11200;51.488;6.668;2023-02-28T16:10:11;3.35;;;2.75;;
22070;SDS011;11200;51.488;6.668;2023-02-28T16:12:39;3.10;;;2.40;;
22070;SDS011;11200;51.488;6.668;2023-02-28T16:15:08;3.72;;;2.55;;
22070;SDS011;11200;51.488;6.668;2023-02-28T16:17:43;2.58;;;2.38;;
22070;SDS011;11200;51.488;6.668;2023-02-28T16:20:17;2.78;;;2.30;;
22070;SDS011;11200;51.488;6.668;2023-02-28T16:22:45;3.90;;;2.60;;
22070;SDS011;11200;51.488;6.668;2023-02-28T16:25:13;4.25;;;2.80;;
22070;SDS011;11200;51.488;6.668;2023-02-28T16:27:40;3.30;;;2.72;;
22070;SDS011;11200;51.488;6.668;2023-02-28T16:30:07;5.03;;;2.50;;
22070;SDS011;11200;51.488;6.668;2023-02-28T16:32:38;3.50;;;2.40;;
22070;SDS011;11200;51.488;6.668;2023-02-28T16:35:05;2.90;;;2.50;;
22070;SDS011;11200;51.488;6.668;2023-02-28T16:37:34;3.08;;;2.42;;
22070;SDS011;11200;51.488;6.668;2023-02-28T16:40:00;3.97;;;2.85;;
22070;SDS011;11200;51.488;6.668;2023-02-28T16:42:26;3.42;;;2.70;;
22070;SDS011;11200;51.488;6.668;2023-02-28T16:44:53;3.35;;;2.75;;
22070;SDS011;11200;51.488;6.668;2023-02-28T16:47:20;3.13;;;2.70;;
22070;SDS011;11200;51.488;6.668;2023-02-28T16:49:46;3.22;;;2.78;;
22070;SDS011;11200;51.488;6.668;2023-02-28T16:52:12;3.90;;;2.63;;
22070;SDS011;11200;51.488;6.668;2023-02-28T16:54:39;4.25;;;2.85;;
22070;SDS011;11200;51.488;6.668;2023-02-28T16:57:06;4.25;;;2.60;;
22070;SDS011;11200;51.488;6.668;2023-02-28T16:59:40;3.03;;;2.60;;
22070;SDS011;11200;51.488;6.668;2023-02-28T17:02:13;3.58;;;2.70;;
22070;SDS011;11200;51.488;6.668;2023-02-28T17:04:40;3.20;;;2.78;;
22070;SDS011;11200;51.488;6.668;2023-02-28T17:07:08;3.13;;;2.33;;
22070;SDS011;11200;51.488;6.668;2023-02-28T17:09:37;2.72;;;2.53;;
22070;SDS011;11200;51.488;6.668;2023-02-28T17:12:03;3.85;;;2.58;;
22070;SDS011;11200;51.488;6.668;2023-02-28T17:14:29;3.67;;;2.70;;
22070;SDS011;11200;51.488;6.668;2023-02-28T17:16:54;4.80;;;2.83;;
22070;SDS011;11200;51.488;6.668;2023-02-28T17:19:20;4.18;;;2.90;;
22070;SDS011;11200;51.488;6.668;2023-02-28T17:21:46;3.42;;;2.80;;
22070;SDS011;11200;51.488;6.668;2023-02-28T17:24:12;4.68;;;3.20;;
22070;SDS011;11200;51.488;6.668;2023-02-28T17:26:38;3.45;;;2.85;;
22070;SDS011;11200;51.488;6.668;2023-02-28T17:29:06;3.33;;;3.00;;
22070;SDS011;11200;51.488;6.668;2023-02-28T17:31:44;2.78;;;2.58;;
22070;SDS011;11200;51.488;6.668;2023-02-28T17:34:09;3.28;;;2.90;;
22070;SDS011;11200;51.488;6.668;2023-02-28T17:36:39;3.05;;;2.75;;
22070;SDS011;11200;51.488;6.668;2023-02-28T17:39:05;5.38;;;3.00;;
22070;SDS011;11200;51.488;6.668;2023-02-28T17:41:36;3.95;;;3.00;;
22070;SDS011;11200;51.488;6.668;2023-02-28T17:44:01;3.28;;;2.97;;
22070;SDS011;11200;51.488;6.668;2023-02-28T17:46:27;3.33;;;2.92;;
22070;SDS011;11200;51.488;6.668;2023-02-28T17:48:53;3.03;;;2.67;;
22070;SDS011;11200;51.488;6.668;2023-02-28T17:51:19;3.53;;;3.08;;
22070;SDS011;11200;51.488;6.668;2023-02-28T17:53:46;4.82;;;3.20;;
22070;SDS011;11200;51.488;6.668;2023-02-28T17:56:13;5.13;;;3.30;;
22070;SDS011;11200;51.488;6.668;2023-02-28T17:58:42;4.55;;;3.53;;
22070;SDS011;11200;51.488;6.668;2023-02-28T18:01:08;5.22;;;3.20;;
22070;SDS011;11200;51.488;6.668;2023-02-28T18:03:34;3.63;;;3.10;;
22070;SDS011;11200;51.488;6.668;2023-02-28T18:06:00;5.05;;;3.40;;
22070;SDS011;11200;51.488;6.668;2023-02-28T18:08:26;3.40;;;3.10;;
22070;SDS011;11200;51.488;6.668;2023-02-28T18:10:52;3.65;;;2.97;;
22070;SDS011;11200;51.488;6.668;2023-02-28T18:13:18;3.85;;;2.90;;
22070;SDS011;11200;51.488;6.668;2023-02-28T18:15:43;4.50;;;3.35;;
22070;SDS011;11200;51.488;6.668;2023-02-28T18:18:09;5.00;;;3.38;;
22070;SDS011;11200;51.488;6.668;2023-02-28T18:20:34;4.47;;;3.25;;
22070;SDS011;11200;51.488;6.668;2023-02-28T18:23:00;4.38;;;3.50;;
22070;SDS011;11200;51.488;6.668;2023-02-28T18:25:27;3.50;;;3.10;;
22070;SDS011;11200;51.488;6.668;2023-02-28T18:27:52;4.05;;;3.28;;
22070;SDS011;11200;51.488;6.668;2023-02-28T18:30:22;4.32;;;3.22;;
22070;SDS011;11200;51.488;6.668;2023-02-28T18:32:54;5.30;;;3.28;;
22070;SDS011;11200;51.488;6.668;2023-02-28T18:35:19;3.90;;;3.40;;
22070;SDS011;11200;51.488;6.668;2023-02-28T18:38:10;4.07;;;3.30;;
22070;SDS011;11200;51.488;6.668;2023-02-28T18:40:40;3.70;;;2.90;;
22070;SDS011;11200;51.488;6.668;2023-02-28T18:43:07;4.90;;;3.60;;
22070;SDS011;11200;51.488;6.668;2023-02-28T18:45:34;4.35;;;3.38;;
22070;SDS011;11200;51.488;6.668;2023-02-28T18:48:02;5.65;;;4.00;;
22070;SDS011;11200;51.488;6.668;2023-02-28T18:50:28;4.03;;;3.20;;
22070;SDS011;11200;51.488;6.668;2023-02-28T18:52:53;4.93;;;3.83;;
22070;SDS011;11200;51.488;6.668;2023-02-28T18:55:21;5.05;;;3.60;;
22070;SDS011;11200;51.488;6.668;2023-02-28T18:57:48;4.30;;;3.55;;
22070;SDS011;11200;51.488;6.668;2023-02-28T19:00:14;4.40;;;3.55;;
22070;SDS011;11200;51.488;6.668;2023-02-28T19:02:43;5.30;;;3.60;;
22070;SDS011;11200;51.488;6.668;2023-02-28T19:05:09;5.40;;;4.03;;
22070;SDS011;11200;51.488;6.668;2023-02-28T19:07:38;5.45;;;3.80;;
22070;SDS011;11200;51.488;6.668;2023-02-28T19:10:04;5.25;;;3.78;;
22070;SDS011;11200;51.488;6.668;2023-02-28T19:12:34;4.82;;;3.78;;
22070;SDS011;11200;51.488;6.668;2023-02-28T19:15:02;4.68;;;3.80;;
22070;SDS011;11200;51.488;6.668;2023-02-28T19:17:28;5.57;;;4.50;;
22070;SDS011;11200;51.488;6.668;2023-02-28T19:19:54;5.10;;;3.70;;
22070;SDS011;11200;51.488;6.668;2023-02-28T19:22:19;3.95;;;3.55;;
22070;SDS011;11200;51.488;6.668;2023-02-28T19:24:45;4.50;;;4.00;;
22070;SDS011;11200;51.488;6.668;2023-02-28T19:27:11;6.35;;;4.20;;
22070;SDS011;11200;51.488;6.668;2023-02-28T19:29:36;4.78;;;3.80;;
22070;SDS011;11200;51.488;6.668;2023-02-28T19:32:02;5.18;;;4.05;;
22070;SDS011;11200;51.488;6.668;2023-02-28T19:34:28;5.30;;;4.35;;
22070;SDS011;11200;51.488;6.668;2023-02-28T19:36:55;5.25;;;4.05;;
22070;SDS011;11200;51.488;6.668;2023-02-28T19:39:20;5.97;;;4.57;;
22070;SDS011;11200;51.488;6.668;2023-02-28T19:41:46;5.20;;;4.10;;
22070;SDS011;11200;51.488;6.668;2023-02-28T19:44:12;5.50;;;4.55;;
22070;SDS011;11200;51.488;6.668;2023-02-28T19:46:37;6.13;;;4.30;;
22070;SDS011;11200;51.488;6.668;2023-02-28T19:49:03;4.43;;;3.85;;
22070;SDS011;11200;51.488;6.668;2023-02-28T19:51:29;5.35;;;4.60;;
22070;SDS011;11200;51.488;6.668;2023-02-28T19:53:54;4.50;;;4.10;;
22070;SDS011;11200;51.488;6.668;2023-02-28T19:56:20;5.22;;;4.20;;
22070;SDS011;11200;51.488;6.668;2023-02-28T19:58:45;5.22;;;4.72;;
22070;SDS011;11200;51.488;6.668;2023-02-28T20:01:13;6.40;;;5.15;;
22070;SDS011;11200;51.488;6.668;2023-02-28T20:03:40;6.38;;;5.00;;
22070;SDS011;11200;51.488;6.668;2023-02-28T20:06:07;6.60;;;4.70;;
22070;SDS011;11200;51.488;6.668;2023-02-28T20:08:37;7.25;;;5.53;;
22070;SDS011;11200;51.488;6.668;2023-02-28T20:11:08;5.93;;;5.05;;
22070;SDS011;11200;51.488;6.668;2023-02-28T20:13:35;6.97;;;5.20;;
22070;SDS011;11200;51.488;6.668;2023-02-28T20:16:01;5.95;;;4.93;;
22070;SDS011;11200;51.488;6.668;2023-02-28T20:18:33;5.22;;;4.72;;
22070;SDS011;11200;51.488;6.668;2023-02-28T20:20:59;6.50;;;5.28;;
22070;SDS011;11200;51.488;6.668;2023-02-28T20:23:26;9.07;;;5.68;;
22070;SDS011;11200;51.488;6.668;2023-02-28T20:25:51;6.18;;;5.30;;
22070;SDS011;11200;51.488;6.668;2023-02-28T20:28:18;6.28;;;5.07;;
22070;SDS011;11200;51.488;6.668;2023-02-28T20:30:44;7.38;;;5.80;;
22070;SDS011;11200;51.488;6.668;2023-02-28T20:33:13;6.80;;;5.55;;
22070;SDS011;11200;51.488;6.668;2023-02-28T20:35:40;7.65;;;5.82;;
22070;SDS011;11200;51.488;6.668;2023-02-28T20:38:06;6.43;;;5.45;;
22070;SDS011;11200;51.488;6.668;2023-02-28T20:40:31;7.35;;;5.53;;
22070;SDS011;11200;51.488;6.668;2023-02-28T20:42:57;7.50;;;5.28;;
22070;SDS011;11200;51.488;6.668;2023-02-28T20:45:23;8.60;;;5.72;;
22070;SDS011;11200;51.488;6.668;2023-02-28T20:47:49;5.75;;;5.13;;
22070;SDS011;11200;51.488;6.668;2023-02-28T20:50:15;6.50;;;5.38;;
22070;SDS011;11200;51.488;6.668;2023-02-28T20:52:41;7.20;;;5.57;;
22070;SDS011;11200;51.488;6.668;2023-02-28T20:55:08;7.10;;;5.28;;
22070;SDS011;11200;51.488;6.668;2023-02-28T20:57:36;7.30;;;5.10;;
22070;SDS011;11200;51.488;6.668;2023-02-28T21:00:02;6.65;;;5.20;;
22070;SDS011;11200;51.488;6.668;2023-02-28T21:02:30;5.70;;;5.10;;
22070;SDS011;11200;51.488;6.668;2023-02-28T21:04:56;6.53;;;5.07;;
22070;SDS011;11200;51.488;6.668;2023-02-28T21:07:22;6.18;;;5.10;;
22070;SDS011;11200;51.488;6.668;2023-02-28T21:09:47;7.57;;;5.07;;
22070;SDS011;11200;51.488;6.668;2023-02-28T21:12:13;5.55;;;4.80;;
22070;SDS011;11200;51.488;6.668;2023-02-28T21:14:38;6.10;;;5.15;;
22070;SDS011;11200;51.488;6.668;2023-02-28T21:17:04;7.35;;;4.80;;
22070;SDS011;11200;51.488;6.668;2023-02-28T21:19:32;6.95;;;5.10;;
22070;SDS011;11200;51.488;6.668;2023-02-28T21:21:58;5.47;;;4.57;;
22070;SDS011;11200;51.488;6.668;2023-02-28T21:24:24;5.35;;;4.47;;
22070;SDS011;11200;51.488;6.668;2023-02-28T21:26:49;5.40;;;4.78;;
22070;SDS011;11200;51.488;6.668;2023-02-28T21:29:16;5.43;;;4.93;;
22070;SDS011;11200;51.488;6.668;2023-02-28T21:31:42;6.18;;;4.65;;
22070;SDS011;11200;51.488;6.668;2023-02-28T21:34:09;5.15;;;4.43;;
22070;SDS011;11200;51.488;6.668;2023-02-28T21:36:37;5.68;;;4.88;;